createdAt,value
2023-04-03T00:00:35.351Z,10.85
2023-04-03T00:03:02.438Z,10.85
2023-04-03T00:05:29.094Z,10.80
2023-04-03T00:07:55.878Z,10.74
2023-04-03T00:10:23.072Z,10.82
2023-04-03T00:12:49.733Z,10.98
2023-04-03T00:15:16.849Z,11.40
2023-04-03T00:17:43.583Z,11.57
2023-04-03T00:20:10.759Z,11.77
2023-04-03T00:22:37.541Z,11.86
2023-04-03T00:25:05.418Z,11.86
2023-04-03T00:27:32.135Z,11.96
2023-04-03T00:29:58.895Z,11.86
2023-04-03T00:32:25.566Z,11.63
2023-04-03T00:34:52.220Z,10.69
2023-04-03T00:37:18.999Z,10.87
2023-04-03T00:39:45.748Z,10.95
2023-04-03T00:42:12.453Z,10.81
2023-04-03T00:44:39.131Z,10.79
2023-04-03T00:47:09.495Z,10.52
2023-04-03T00:49:38.173Z,10.24
2023-04-03T00:52:07.719Z,10.20
2023-04-03T00:54:37.601Z,9.92
2023-04-03T00:57:06.761Z,9.83
2023-04-03T00:59:36.860Z,9.89
2023-04-03T01:02:03.696Z,9.70
2023-04-03T01:04:39.619Z,9.84
2023-04-03T01:07:13.585Z,9.67
2023-04-03T01:09:41.267Z,9.49
2023-04-03T01:12:33.099Z,9.53
2023-04-03T01:15:07.375Z,9.47
2023-04-03T01:17:41.835Z,9.62
2023-04-03T01:20:27.409Z,9.43
2023-04-03T01:23:05.157Z,9.58
2023-04-03T01:25:31.811Z,9.75
2023-04-03T01:27:58.571Z,9.93
2023-04-03T01:30:31.811Z,10.14
2023-04-03T01:32:58.608Z,10.06
2023-04-03T01:35:25.780Z,9.94
2023-04-03T01:37:52.410Z,10.18
2023-04-03T01:40:19.293Z,10.31
2023-04-03T01:42:46.371Z,10.33
2023-04-03T01:45:13.121Z,10.24
2023-04-03T01:47:39.992Z,10.04
2023-04-03T01:50:07.135Z,10.25
2023-04-03T01:52:33.828Z,9.78
2023-04-03T01:55:00.503Z,9.56
2023-04-03T01:57:27.241Z,9.56
2023-04-03T01:59:53.946Z,9.33
2023-04-03T02:02:21.379Z,9.11
2023-04-03T02:04:48.060Z,9.06
2023-04-03T02:07:14.788Z,9.29
2023-04-03T02:09:41.522Z,9.46
2023-04-03T02:12:08.175Z,9.42
2023-04-03T02:14:34.827Z,9.34
2023-04-03T02:17:06.094Z,9.18
2023-04-03T02:19:32.943Z,9.19
2023-04-03T02:21:59.625Z,9.05
2023-04-03T02:24:26.410Z,9.12
2023-04-03T02:26:53.200Z,8.87
2023-04-03T02:29:20.055Z,8.82
2023-04-03T02:31:46.807Z,8.55
2023-04-03T02:34:13.498Z,8.39
2023-04-03T02:36:40.394Z,8.44
2023-04-03T02:39:07.109Z,8.41
2023-04-03T02:41:36.513Z,8.15
2023-04-03T02:44:05.135Z,8.03
2023-04-03T02:46:32.052Z,7.98
2023-04-03T02:48:58.948Z,7.88
2023-04-03T02:51:26.052Z,7.83
2023-04-03T02:53:52.809Z,7.75
2023-04-03T02:56:20.440Z,7.58
2023-04-03T02:58:47.363Z,7.45
2023-04-03T03:01:16.353Z,7.39
2023-04-03T03:03:43.102Z,7.50
2023-04-03T03:06:12.983Z,7.35
2023-04-03T03:08:40.599Z,7.56
2023-04-03T03:11:07.636Z,7.42
2023-04-03T03:13:35.053Z,7.33
2023-04-03T03:16:01.925Z,7.43
2023-04-03T03:18:29.415Z,7.34
2023-04-03T03:21:00.794Z,7.35
2023-04-03T03:23:31.860Z,7.35
2023-04-03T03:26:05.470Z,7.54
2023-04-03T03:28:33.090Z,7.84
2023-04-03T03:31:00.725Z,8.00
2023-04-03T03:33:28.080Z,7.84
2023-04-03T03:35:55.952Z,7.89
2023-04-03T03:38:23.355Z,7.86
2023-04-03T03:40:51.309Z,7.82
2023-04-03T03:43:18.829Z,7.83
2023-04-03T03:45:46.611Z,7.75
2023-04-03T03:48:13.346Z,7.83
2023-04-03T03:50:40.012Z,7.77
2023-04-03T03:53:06.699Z,7.90
2023-04-03T03:55:33.344Z,7.80
2023-04-03T03:58:01.156Z,7.80
2023-04-03T04:00:28.637Z,7.85
2023-04-03T04:02:57.723Z,7.98
2023-04-03T04:05:25.924Z,8.23
2023-04-03T04:07:52.555Z,8.31
2023-04-03T04:10:19.208Z,8.24
2023-04-03T04:12:46.161Z,8.30
2023-04-03T04:15:12.850Z,8.04
2023-04-03T04:17:40.374Z,8.15
2023-04-03T04:20:07.665Z,8.20
2023-04-03T04:22:34.313Z,7.98
2023-04-03T04:25:00.966Z,7.85
2023-04-03T04:27:27.686Z,7.69
2023-04-03T04:29:54.422Z,8.00
2023-04-03T04:32:21.318Z,8.09
2023-04-03T04:34:48.369Z,8.22
2023-04-03T04:37:15.013Z,8.21
2023-04-03T04:39:42.027Z,8.12
2023-04-03T04:42:15.106Z,8.35
2023-04-03T04:44:43.538Z,8.53
2023-04-03T04:47:10.442Z,8.54
2023-04-03T04:49:37.367Z,8.63
2023-04-03T04:52:04.176Z,8.68
2023-04-03T04:54:31.045Z,8.63
2023-04-03T04:56:57.703Z,8.59
2023-04-03T04:59:24.386Z,8.67
2023-04-03T05:01:51.213Z,8.70
2023-04-03T05:04:18.690Z,8.63
2023-04-03T05:06:45.656Z,8.79
2023-04-03T05:09:12.423Z,8.99
2023-04-03T05:11:39.256Z,9.07
2023-04-03T05:14:07.647Z,9.10
2023-04-03T05:16:35.208Z,8.94
2023-04-03T05:19:02.035Z,9.00
2023-04-03T05:21:33.241Z,8.92
2023-04-03T05:24:03.782Z,8.45
2023-04-03T05:26:32.165Z,8.34
2023-04-03T05:28:59.273Z,8.67
2023-04-03T05:31:26.130Z,8.79
2023-04-03T05:33:52.752Z,9.17
2023-04-03T05:36:19.726Z,9.51
2023-04-03T05:38:46.657Z,9.61
2023-04-03T05:41:14.228Z,9.62
2023-04-03T05:43:41.070Z,10.02
2023-04-03T05:46:16.451Z,10.29
2023-04-03T05:48:43.988Z,10.19
2023-04-03T05:51:20.109Z,10.96
2023-04-03T05:53:48.516Z,10.81
2023-04-03T05:56:15.526Z,10.54
2023-04-03T05:58:42.589Z,10.89
2023-04-03T06:01:09.311Z,11.38
2023-04-03T06:03:38.623Z,11.37
2023-04-03T06:06:06.962Z,11.26
2023-04-03T06:08:34.171Z,11.11
2023-04-03T06:11:00.992Z,11.19
2023-04-03T06:13:27.697Z,11.30
2023-04-03T06:15:54.514Z,11.43
2023-04-03T06:18:21.631Z,11.53
2023-04-03T06:20:48.368Z,11.65
2023-04-03T06:23:14.996Z,11.75
2023-04-03T06:25:41.883Z,11.87
2023-04-03T06:28:11.183Z,11.71
2023-04-03T06:30:38.638Z,12.06
2023-04-03T06:33:05.921Z,12.55
2023-04-03T06:35:32.781Z,12.62
2023-04-03T06:37:59.477Z,12.33
2023-04-03T06:40:27.590Z,11.97
2023-04-03T06:42:54.317Z,12.20
2023-04-03T06:45:21.275Z,12.14
2023-04-03T06:47:47.956Z,12.34
2023-04-03T06:50:15.770Z,12.53
2023-04-03T06:52:43.050Z,12.46
2023-04-03T06:55:10.821Z,12.69
2023-04-03T06:57:37.994Z,13.02
2023-04-03T07:00:06.756Z,12.56
2023-04-03T07:02:33.956Z,12.83
2023-04-03T07:05:00.818Z,13.30
2023-04-03T07:07:27.609Z,13.53
2023-04-03T07:09:54.608Z,13.00
2023-04-03T07:12:21.768Z,13.37
2023-04-03T07:14:48.594Z,12.83
2023-04-03T07:17:15.576Z,13.12
2023-04-03T07:19:42.398Z,13.51
2023-04-03T07:22:09.221Z,12.96
2023-04-03T07:24:35.983Z,13.33
2023-04-03T07:27:03.642Z,13.82
2023-04-03T07:29:31.058Z,13.50
2023-04-03T07:31:58.196Z,13.35
2023-04-03T07:34:25.465Z,13.70
2023-04-03T07:36:52.128Z,13.33
2023-04-03T07:39:18.782Z,13.19
2023-04-03T07:41:46.744Z,13.62
2023-04-03T07:44:13.471Z,14.32
2023-04-03T07:46:40.270Z,14.36
2023-04-03T07:49:07.013Z,14.18
2023-04-03T07:51:34.113Z,13.93
2023-04-03T07:54:00.852Z,13.90
2023-04-03T07:56:27.607Z,14.54
2023-04-03T07:58:54.754Z,14.69
2023-04-03T08:01:21.799Z,15.37
2023-04-03T08:03:48.855Z,15.63
2023-04-03T08:06:16.992Z,15.64
2023-04-03T08:08:45.484Z,15.72
2023-04-03T08:11:12.929Z,15.75
2023-04-03T08:13:40.000Z,16.12
2023-04-03T08:16:17.693Z,16.42
2023-04-03T08:18:44.980Z,16.50
2023-04-03T08:21:13.101Z,16.31
2023-04-03T08:23:42.293Z,16.73
2023-04-03T08:26:14.864Z,16.83
2023-04-03T08:28:41.657Z,17.16
2023-04-03T08:31:13.504Z,16.81
2023-04-03T08:33:41.239Z,16.69
2023-04-03T08:36:17.656Z,16.52
2023-04-03T08:38:44.392Z,16.83
2023-04-03T08:41:17.240Z,16.73
2023-04-03T08:44:02.872Z,16.71
2023-04-03T08:47:15.748Z,16.34
2023-04-03T08:49:48.733Z,16.51
2023-04-03T08:52:30.198Z,16.28
2023-04-03T08:55:02.543Z,16.62
2023-04-03T08:57:39.952Z,16.28
2023-04-03T09:00:14.864Z,16.35
2023-04-03T09:02:53.607Z,16.45
2023-04-03T09:05:40.450Z,16.16
2023-04-03T09:08:25.279Z,16.28
2023-04-03T09:11:06.168Z,16.58
2023-04-03T09:13:39.656Z,16.68
2023-04-03T09:16:21.461Z,16.42
2023-04-03T09:19:03.537Z,16.22
2023-04-03T09:21:43.500Z,16.54
2023-04-03T09:24:13.288Z,16.55
2023-04-03T09:26:45.972Z,16.62
2023-04-03T09:29:19.760Z,16.63
2023-04-03T09:31:49.456Z,17.05
2023-04-03T09:34:23.918Z,17.27
2023-04-03T09:36:53.372Z,17.57
2023-04-03T09:39:23.167Z,17.70
2023-04-03T09:42:20.252Z,17.41
2023-04-03T09:44:58.841Z,17.78
2023-04-03T09:47:31.675Z,17.51
2023-04-03T09:50:14.073Z,17.50
2023-04-03T09:52:42.293Z,17.45
2023-04-03T09:55:19.674Z,17.78
2023-04-03T09:57:47.494Z,17.53
2023-04-03T10:00:38.888Z,17.46
2023-04-03T10:03:11.569Z,17.57
2023-04-03T10:05:43.404Z,17.57
2023-04-03T10:08:16.373Z,17.97
2023-04-03T10:10:50.943Z,17.89
2023-04-03T10:13:21.589Z,18.12
2023-04-03T10:16:02.939Z,18.13
2023-04-03T10:18:57.163Z,17.41
2023-04-03T10:22:08.294Z,17.31
2023-04-03T10:24:46.672Z,16.93
2023-04-03T10:27:43.342Z,17.24
2023-04-03T10:30:10.028Z,17.29
2023-04-03T10:32:55.100Z,17.13
2023-04-03T10:35:47.302Z,17.27
2023-04-03T10:38:29.104Z,17.00
2023-04-03T10:41:08.694Z,16.62
2023-04-03T10:43:56.465Z,16.61
2023-04-03T10:46:39.657Z,16.97
2023-04-03T10:49:17.587Z,16.61
2023-04-03T10:52:02.135Z,16.66
2023-04-03T10:54:39.587Z,16.68
2023-04-03T10:57:13.202Z,16.91
2023-04-03T10:59:55.146Z,16.64
2023-04-03T11:02:32.840Z,16.58
2023-04-03T11:05:10.914Z,16.68
2023-04-03T11:07:46.619Z,16.61
2023-04-03T11:10:22.265Z,16.50
2023-04-03T11:13:03.524Z,16.17
2023-04-03T11:15:34.396Z,16.50
2023-04-03T11:18:11.266Z,16.50
2023-04-03T11:20:43.708Z,16.57
2023-04-03T11:23:19.682Z,16.71
2023-04-03T11:25:51.337Z,16.41
2023-04-03T11:28:18.022Z,16.51
2023-04-03T11:30:47.738Z,16.33
2023-04-03T11:33:37.506Z,16.58
2023-04-03T11:36:26.463Z,16.47
2023-04-03T11:39:00.441Z,16.41
2023-04-03T11:41:30.789Z,16.45
2023-04-03T11:44:03.630Z,16.36
2023-04-03T11:46:57.212Z,16.30
2023-04-03T11:49:54.178Z,16.25
2023-04-03T11:52:41.487Z,16.49
2023-04-03T11:55:22.252Z,16.44
2023-04-03T11:58:01.320Z,16.36
2023-04-03T12:00:46.622Z,16.45
2023-04-03T12:07:17.853Z,16.27
2023-04-03T12:09:44.824Z,16.30
2023-04-03T12:13:00.177Z,16.15
2023-04-03T12:15:48.573Z,16.20
2023-04-03T12:18:55.035Z,16.16
2023-04-03T12:21:23.980Z,16.22
2023-04-03T12:24:06.377Z,16.31
2023-04-03T12:26:48.072Z,16.20
2023-04-03T12:29:29.674Z,16.44
2023-04-03T12:32:27.096Z,16.08
2023-04-03T12:35:18.188Z,16.02
2023-04-03T12:38:12.365Z,15.83
2023-04-03T12:41:16.558Z,15.88
2023-04-03T12:43:49.170Z,16.05
2023-04-03T12:46:20.581Z,15.98
2023-04-03T12:48:51.427Z,15.97
2023-04-03T12:51:39.505Z,15.98
2023-04-03T12:54:14.807Z,16.00
2023-04-03T12:56:42.000Z,15.94
2023-04-03T12:59:25.325Z,15.79
2023-04-03T13:02:00.533Z,15.39
2023-04-03T13:04:32.948Z,15.32
2023-04-03T13:07:00.121Z,15.38
2023-04-03T13:09:32.016Z,15.19
2023-04-03T13:12:10.941Z,15.10
2023-04-03T13:14:38.096Z,15.12
2023-04-03T13:17:14.883Z,15.17
2023-04-03T13:19:46.999Z,15.11
2023-04-03T13:22:40.035Z,15.01
2023-04-03T13:25:11.197Z,14.94
2023-04-03T13:27:43.598Z,14.96
2023-04-03T13:30:28.544Z,14.99
2023-04-03T13:32:58.805Z,14.97
2023-04-03T13:35:41.669Z,15.02
2023-04-03T13:38:32.505Z,15.01
2023-04-03T13:41:03.613Z,14.96
2023-04-03T13:43:36.554Z,14.92
2023-04-03T13:46:08.106Z,14.87
2023-04-03T13:48:44.650Z,14.88
2023-04-03T13:51:14.387Z,14.77
2023-04-03T13:53:46.097Z,14.88
2023-04-03T13:56:56.368Z,14.67
2023-04-03T13:59:28.202Z,14.55
2023-04-03T14:02:03.966Z,14.43
2023-04-03T14:04:43.585Z,14.51
2023-04-03T14:07:11.121Z,14.50
2023-04-03T14:09:38.275Z,14.32
2023-04-03T14:12:30.335Z,14.24
2023-04-03T14:14:58.778Z,14.26
2023-04-03T14:17:27.624Z,14.23
2023-04-03T14:19:56.255Z,14.00
2023-04-03T14:22:32.737Z,13.93
2023-04-03T14:25:00.399Z,13.88
2023-04-03T14:27:36.046Z,13.89
2023-04-03T14:30:05.114Z,13.71
2023-04-03T14:32:32.170Z,13.61
2023-04-03T14:34:59.807Z,13.54
2023-04-03T14:37:30.300Z,13.52
2023-04-03T14:39:59.143Z,13.35
2023-04-03T14:42:32.003Z,13.29
2023-04-03T14:44:59.946Z,13.33
2023-04-03T14:47:31.914Z,13.35
2023-04-03T14:50:02.003Z,13.07
2023-04-03T14:52:34.498Z,13.12
2023-04-03T14:55:02.763Z,12.93
2023-04-03T14:57:31.224Z,12.78
2023-04-03T14:59:58.298Z,12.50
2023-04-03T15:02:37.035Z,12.48
2023-04-03T15:05:09.639Z,12.45
2023-04-03T15:07:45.994Z,12.33
2023-04-03T15:10:15.796Z,12.29
2023-04-03T15:12:43.588Z,12.26
2023-04-03T15:15:10.966Z,12.11
2023-04-03T15:17:38.239Z,12.04
2023-04-03T15:20:12.623Z,12.00
2023-04-03T15:22:39.356Z,11.87
2023-04-03T15:25:06.410Z,11.96
2023-04-03T15:27:33.207Z,11.87
2023-04-03T15:30:00.033Z,11.79
2023-04-03T15:32:26.757Z,11.89
2023-04-03T15:34:56.649Z,11.75
2023-04-03T15:37:23.772Z,11.84
2023-04-03T15:39:50.560Z,11.76
2023-04-03T15:42:17.263Z,11.77
2023-04-03T15:44:43.939Z,11.71
2023-04-03T15:47:11.061Z,11.62
2023-04-03T15:49:39.717Z,11.63
2023-04-03T15:52:06.551Z,11.67
2023-04-03T15:54:33.265Z,11.61
2023-04-03T15:57:00.067Z,11.57
2023-04-03T15:59:26.769Z,11.55
2023-04-03T16:01:53.895Z,11.48
2023-04-03T16:04:22.237Z,11.46
2023-04-03T16:06:49.937Z,11.41
2023-04-03T16:09:16.824Z,11.30
2023-04-03T16:11:44.572Z,11.23
2023-04-03T16:14:11.291Z,11.35
2023-04-03T16:16:38.763Z,11.22
2023-04-03T16:19:06.530Z,11.37
2023-04-03T16:21:34.130Z,11.35
2023-04-03T16:24:02.308Z,11.24
2023-04-03T16:26:29.031Z,11.21
2023-04-03T16:28:55.796Z,11.26
2023-04-03T16:31:25.294Z,11.19
2023-04-03T16:33:52.378Z,11.16
2023-04-03T16:36:19.148Z,11.14
2023-04-03T16:38:45.962Z,11.11
2023-04-03T16:41:12.644Z,11.09
2023-04-03T16:43:39.530Z,11.06
2023-04-03T16:46:06.234Z,10.96
2023-04-03T16:48:33.403Z,10.99
2023-04-03T16:51:00.203Z,10.97
2023-04-03T16:53:27.980Z,10.90
2023-04-03T16:55:55.840Z,10.85
2023-04-03T16:58:23.923Z,10.82
2023-04-03T17:00:52.122Z,10.90
2023-04-03T17:03:18.973Z,10.94
2023-04-03T17:05:48.921Z,10.89
2023-04-03T17:08:17.160Z,10.84
2023-04-03T17:10:43.981Z,10.86
2023-04-03T17:13:10.892Z,10.72
2023-04-03T17:15:38.177Z,10.63
2023-04-03T17:18:05.676Z,10.67
2023-04-03T17:20:34.881Z,10.59
2023-04-03T17:23:01.751Z,10.50
2023-04-03T17:25:28.549Z,10.55
2023-04-03T17:27:55.490Z,10.48
2023-04-03T17:30:22.208Z,10.44
2023-04-03T17:32:49.191Z,10.33
2023-04-03T17:35:16.070Z,10.35
2023-04-03T17:37:42.820Z,10.37
2023-04-03T17:40:10.255Z,10.31
2023-04-03T17:42:36.945Z,10.26
2023-04-03T17:45:05.126Z,10.16
2023-04-03T17:47:31.987Z,10.28
2023-04-03T17:49:58.774Z,10.23
2023-04-03T17:52:28.539Z,10.27
2023-04-03T17:54:55.492Z,10.23
2023-04-03T17:57:22.389Z,10.18
2023-04-03T17:59:49.225Z,10.17
2023-04-03T18:02:15.951Z,10.02
2023-04-03T18:04:42.670Z,9.96
2023-04-03T18:07:12.221Z,9.94
2023-04-03T18:09:41.277Z,9.90
2023-04-03T18:12:10.134Z,9.88
2023-04-03T18:14:38.778Z,9.75
2023-04-03T18:17:06.352Z,9.88
2023-04-03T18:19:33.873Z,9.87
2023-04-03T18:22:04.057Z,9.81
2023-04-03T18:24:34.359Z,9.74
2023-04-03T18:27:07.029Z,9.76
2023-04-03T18:29:37.506Z,9.71
2023-04-03T18:32:05.516Z,9.65
2023-04-03T18:34:32.960Z,9.64
2023-04-03T18:37:00.413Z,9.55
2023-04-03T18:39:27.220Z,9.54
2023-04-03T18:41:54.496Z,9.49
2023-04-03T18:44:23.918Z,9.49
2023-04-03T18:46:52.731Z,9.54
2023-04-03T18:49:20.244Z,9.51
2023-04-03T18:51:47.569Z,9.54
2023-04-03T18:54:14.268Z,9.50
2023-04-03T18:56:41.261Z,9.50
2023-04-03T18:59:08.343Z,9.49
2023-04-03T19:01:35.522Z,9.47
2023-04-03T19:04:02.773Z,9.43
2023-04-03T19:06:29.642Z,9.49
2023-04-03T19:08:56.604Z,9.49
2023-04-03T19:11:23.636Z,9.42
2023-04-03T19:16:20.074Z,9.40
2023-04-03T19:18:46.750Z,9.44
2023-04-03T19:21:15.074Z,9.44
2023-04-03T19:23:44.728Z,9.46
2023-04-03T19:26:14.429Z,9.48
2023-04-03T19:28:41.821Z,9.48
2023-04-03T19:31:17.812Z,9.49
2023-04-03T19:33:45.266Z,9.45
2023-04-03T19:36:12.395Z,9.41
2023-04-03T19:38:39.798Z,9.42
2023-04-03T19:41:09.791Z,9.43
2023-04-03T19:43:37.519Z,9.42
2023-04-03T19:46:06.250Z,9.42
2023-04-03T19:48:34.748Z,9.37
2023-04-03T19:51:01.754Z,9.37
2023-04-03T19:53:29.131Z,9.38
2023-04-03T19:55:58.569Z,9.38
2023-04-03T19:58:27.890Z,9.42
2023-04-03T20:00:55.485Z,9.40
2023-04-03T20:03:24.473Z,9.48
2023-04-03T20:05:51.639Z,9.53
2023-04-03T20:08:18.457Z,9.56
2023-04-03T20:10:45.916Z,9.58
2023-04-03T20:13:14.050Z,9.58
2023-04-03T20:15:42.984Z,9.71
2023-04-03T20:18:18.266Z,9.80
2023-04-03T20:20:52.427Z,9.81
2023-04-03T20:23:19.351Z,9.86
2023-04-03T20:25:57.517Z,9.88
2023-04-03T20:28:28.987Z,9.87
2023-04-03T20:30:56.802Z,9.79
2023-04-03T20:33:24.244Z,9.81
2023-04-03T20:35:51.584Z,9.79
2023-04-03T20:38:18.252Z,9.70
2023-04-03T20:40:45.231Z,9.68
2023-04-03T20:43:12.562Z,9.71
2023-04-03T20:45:39.525Z,9.67
2023-04-03T20:48:06.874Z,9.65
2023-04-03T20:50:34.841Z,9.60
2023-04-03T20:53:02.272Z,9.60
2023-04-03T20:55:29.976Z,9.59
2023-04-03T20:58:01.196Z,9.61
2023-04-03T21:00:29.143Z,9.61
2023-04-03T21:02:57.960Z,9.53
2023-04-03T21:05:26.366Z,9.46
2023-04-03T21:08:32.034Z,9.57
2023-04-03T21:11:36.491Z,9.59
2023-04-03T21:14:42.459Z,9.62
2023-04-03T21:17:09.084Z,9.63
2023-04-03T21:19:43.192Z,9.61
2023-04-03T21:22:10.319Z,9.61
2023-04-03T21:24:37.861Z,9.62
2023-04-03T21:27:04.973Z,9.63
2023-04-03T21:29:31.841Z,9.61
2023-04-03T21:32:00.173Z,9.63
2023-04-03T21:34:28.650Z,9.59
2023-04-03T21:36:57.317Z,9.50
2023-04-03T21:39:24.235Z,9.59
2023-04-03T21:41:53.986Z,9.57
2023-04-03T21:44:21.526Z,9.53
2023-04-03T21:46:53.777Z,9.53
2023-04-03T21:49:24.911Z,9.52
2023-04-03T21:51:52.508Z,9.55
2023-04-03T21:54:20.425Z,9.48
2023-04-03T21:56:51.740Z,9.53
2023-04-03T21:59:18.790Z,9.51
2023-04-03T22:01:45.694Z,9.49
2023-04-03T22:04:12.836Z,9.54
2023-04-03T22:06:39.595Z,9.51
2023-04-03T22:09:06.618Z,9.47
2023-04-03T22:11:33.506Z,9.53
2023-04-03T22:14:00.274Z,9.50
2023-04-03T22:16:27.534Z,9.54
2023-04-03T22:18:55.079Z,9.55
2023-04-03T22:21:22.440Z,9.56
2023-04-03T22:23:49.331Z,9.50
2023-04-03T22:26:16.627Z,9.39
2023-04-03T22:28:47.458Z,9.62
2023-04-03T22:31:16.425Z,9.55
2023-04-03T22:33:45.061Z,9.55
2023-04-03T22:36:13.654Z,9.56
2023-04-03T22:38:44.255Z,9.57
2023-04-03T22:41:11.913Z,9.53
2023-04-03T22:43:39.557Z,9.47
2023-04-03T22:46:11.296Z,9.58
2023-04-03T22:48:40.984Z,9.58
2023-04-03T22:51:08.507Z,9.51
2023-04-03T22:53:36.103Z,9.50
2023-04-03T22:56:04.992Z,9.55
2023-04-03T22:58:31.790Z,9.59
2023-04-03T23:01:08.005Z,9.57
2023-04-03T23:03:36.169Z,9.57
2023-04-03T23:06:06.790Z,9.56
2023-04-03T23:08:35.187Z,9.54
2023-04-03T23:11:02.581Z,9.56
2023-04-03T23:13:29.691Z,9.57
2023-04-03T23:15:57.892Z,9.60
2023-04-03T23:18:25.574Z,9.61
2023-04-03T23:20:54.478Z,9.61
2023-04-03T23:23:22.666Z,9.60
2023-04-03T23:25:57.201Z,9.56
2023-04-03T23:28:24.395Z,9.66
2023-04-03T23:30:57.233Z,9.62
2023-04-03T23:33:23.983Z,9.64
2023-04-03T23:35:52.616Z,9.50
2023-04-03T23:38:19.364Z,9.66
2023-04-03T23:40:47.219Z,9.61
2023-04-03T23:43:14.110Z,9.65
2023-04-03T23:45:41.926Z,9.74
2023-04-03T23:48:09.096Z,9.69
2023-04-03T23:50:35.759Z,9.64
2023-04-03T23:53:02.358Z,9.67
2023-04-03T23:55:29.051Z,9.64
2023-04-03T23:57:56.211Z,9.62
